createdAt,value
2019-06-27T00:01:36.531Z,5.95
2019-06-27T00:04:04.245Z,5.57
2019-06-27T00:06:31.906Z,5.47
2019-06-27T00:08:59.859Z,6.07
2019-06-27T00:11:27.571Z,6.17
2019-06-27T00:13:55.231Z,5.80
2019-06-27T00:16:22.883Z,5.90
2019-06-27T00:18:50.683Z,5.62
2019-06-27T00:21:18.418Z,5.67
2019-06-27T00:23:46.071Z,5.23
2019-06-27T00:26:13.787Z,6.13
2019-06-27T00:28:42.485Z,5.93
2019-06-27T00:31:10.199Z,6.23
2019-06-27T00:33:37.866Z,6.10
2019-06-27T00:36:05.607Z,6.60
2019-06-27T00:38:33.422Z,6.15
2019-06-27T00:41:01.140Z,6.30
2019-06-27T00:43:28.947Z,6.83
2019-06-27T00:45:56.599Z,6.90
2019-06-27T00:48:24.398Z,6.63
2019-06-27T00:50:52.128Z,6.23
2019-06-27T00:53:19.772Z,6.90
2019-06-27T00:55:47.418Z,6.43
2019-06-27T00:58:15.173Z,7.53
2019-06-27T01:00:42.972Z,6.47
2019-06-27T01:03:10.747Z,6.67
2019-06-27T01:05:38.488Z,6.30
2019-06-27T01:08:06.270Z,6.37
2019-06-27T01:10:33.915Z,6.23
2019-06-27T01:13:01.579Z,6.03
2019-06-27T01:15:29.295Z,6.03
2019-06-27T01:17:56.955Z,6.00
2019-06-27T01:20:24.632Z,5.93
2019-06-27T01:22:52.280Z,7.10
2019-06-27T01:25:19.927Z,7.00
2019-06-27T01:27:47.674Z,6.70
2019-06-27T01:30:16.184Z,6.60
2019-06-27T01:32:43.905Z,7.17
2019-06-27T01:35:12.591Z,6.72
2019-06-27T01:37:40.675Z,6.93
2019-06-27T01:40:08.956Z,7.17
2019-06-27T01:42:36.636Z,6.97
2019-06-27T01:45:07.431Z,7.00
2019-06-27T01:47:35.076Z,6.47
2019-06-27T01:50:04.233Z,7.20
2019-06-27T01:52:31.912Z,8.17
2019-06-27T01:54:59.556Z,7.90
2019-06-27T01:57:27.243Z,7.90
2019-06-27T01:59:54.889Z,7.67
2019-06-27T02:02:22.675Z,7.90
2019-06-27T02:04:50.347Z,6.83
2019-06-27T02:07:17.992Z,7.13
2019-06-27T02:09:45.718Z,6.73
2019-06-27T02:12:13.451Z,7.47
2019-06-27T02:14:41.194Z,7.17
2019-06-27T02:17:08.922Z,7.23
2019-06-27T02:19:36.679Z,6.53
2019-06-27T02:22:04.557Z,7.40
2019-06-27T02:24:32.200Z,7.00
2019-06-27T02:26:59.888Z,7.27
2019-06-27T02:29:27.536Z,7.87
2019-06-27T02:31:55.184Z,6.83
2019-06-27T02:34:23.563Z,7.10
2019-06-27T02:36:51.284Z,7.10
2019-06-27T02:39:19.008Z,7.97
2019-06-27T02:41:46.746Z,6.60
2019-06-27T02:44:14.388Z,8.13
2019-06-27T02:46:42.177Z,7.53
2019-06-27T02:49:09.856Z,7.20
2019-06-27T02:51:37.513Z,7.63
2019-06-27T02:54:05.220Z,7.30
2019-06-27T02:56:32.895Z,7.13
2019-06-27T02:59:00.613Z,7.07
2019-06-27T03:01:28.611Z,7.37
2019-06-27T03:03:56.376Z,6.80
2019-06-27T03:06:24.015Z,6.67
2019-06-27T03:08:51.833Z,7.50
2019-06-27T03:11:19.568Z,6.80
2019-06-27T03:13:47.294Z,7.17
2019-06-27T03:16:15.173Z,6.90
2019-06-27T03:18:42.963Z,6.67
2019-06-27T03:21:10.670Z,7.30
2019-06-27T03:23:38.316Z,6.83
2019-06-27T03:26:05.980Z,8.07
2019-06-27T03:28:50.860Z,7.83
2019-06-27T03:31:03.056Z,8.07
2019-06-27T03:33:30.877Z,7.42
2019-06-27T03:35:58.594Z,7.35
2019-06-27T03:38:26.312Z,8.77
2019-06-27T03:40:54.000Z,8.08
2019-06-27T03:43:21.643Z,7.47
2019-06-27T03:45:49.436Z,8.57
2019-06-27T03:48:17.194Z,8.13
2019-06-27T03:50:44.891Z,8.00
2019-06-27T03:53:12.535Z,8.77
2019-06-27T03:55:40.228Z,8.57
2019-06-27T03:58:08.030Z,7.67
2019-06-27T04:00:35.878Z,7.50
2019-06-27T04:03:03.917Z,7.60
2019-06-27T04:05:31.622Z,7.87
2019-06-27T04:07:59.270Z,7.17
2019-06-27T04:10:26.940Z,7.30
2019-06-27T04:12:54.588Z,7.83
2019-06-27T04:15:22.235Z,7.93
2019-06-27T04:17:49.972Z,7.37
2019-06-27T04:20:17.764Z,7.67
2019-06-27T04:22:46.409Z,6.83
2019-06-27T04:25:14.236Z,7.17
2019-06-27T04:27:41.875Z,6.53
2019-06-27T04:30:09.857Z,7.10
2019-06-27T04:32:37.835Z,7.40
2019-06-27T04:35:06.655Z,7.90
2019-06-27T04:37:34.417Z,8.00
2019-06-27T04:40:02.417Z,7.33
2019-06-27T04:42:30.137Z,8.40
2019-06-27T04:44:57.876Z,8.77
2019-06-27T04:47:25.543Z,9.30
2019-06-27T04:49:53.254Z,10.13
2019-06-27T04:52:20.902Z,9.17
2019-06-27T04:54:48.644Z,10.43
2019-06-27T04:57:16.363Z,10.60
2019-06-27T04:59:53.114Z,9.80
2019-06-27T05:02:13.471Z,9.47
2019-06-27T05:04:41.120Z,9.23
2019-06-27T05:07:08.764Z,9.90
2019-06-27T05:09:36.434Z,10.23
2019-06-27T05:12:04.076Z,9.83
2019-06-27T05:14:32.650Z,10.00
2019-06-27T05:17:00.480Z,10.23
2019-06-27T05:19:28.119Z,9.23
2019-06-27T05:21:55.778Z,9.97
2019-06-27T05:24:23.534Z,10.00
2019-06-27T05:26:51.186Z,10.33
2019-06-27T05:29:18.915Z,9.47
2019-06-27T05:31:46.655Z,9.43
2019-06-27T05:34:14.304Z,9.93
2019-06-27T05:36:41.943Z,9.07
2019-06-27T05:39:09.611Z,9.10
2019-06-27T05:41:37.394Z,9.35
2019-06-27T05:44:05.376Z,7.90
2019-06-27T05:46:33.327Z,8.77
2019-06-27T05:49:00.966Z,9.10
2019-06-27T05:51:28.707Z,8.50
2019-06-27T05:53:56.919Z,8.70
2019-06-27T05:56:24.562Z,9.13
2019-06-27T05:58:52.396Z,8.20
2019-06-27T06:01:20.151Z,8.63
2019-06-27T06:03:47.794Z,9.23
2019-06-27T06:06:15.448Z,9.93
2019-06-27T06:08:43.114Z,9.05
2019-06-27T06:11:10.754Z,9.73
2019-06-27T06:13:38.400Z,8.07
2019-06-27T06:16:06.566Z,9.13
2019-06-27T06:18:34.206Z,8.50
2019-06-27T06:21:01.849Z,8.80
2019-06-27T06:23:29.515Z,9.20
2019-06-27T06:25:57.150Z,9.77
2019-06-27T06:28:24.795Z,10.50
2019-06-27T06:30:52.459Z,10.17
2019-06-27T06:33:20.104Z,9.50
2019-06-27T06:35:47.747Z,9.37
2019-06-27T06:38:15.407Z,9.17
2019-06-27T06:40:43.053Z,9.10
2019-06-27T06:43:10.691Z,8.50
2019-06-27T06:45:38.362Z,8.90
2019-06-27T06:48:06.086Z,8.47
2019-06-27T06:50:33.785Z,8.00
2019-06-27T06:53:01.448Z,8.10
2019-06-27T06:55:29.086Z,7.00
2019-06-27T06:57:56.730Z,8.17
2019-06-27T07:00:25.433Z,8.17
2019-06-27T07:02:53.157Z,7.90
2019-06-27T07:05:20.876Z,7.93
2019-06-27T07:07:48.546Z,7.70
2019-06-27T07:10:16.298Z,7.22
2019-06-27T07:12:43.981Z,7.47
2019-06-27T07:15:11.887Z,7.53
2019-06-27T07:17:39.526Z,7.37
2019-06-27T07:20:07.407Z,7.67
2019-06-27T07:22:35.178Z,7.50
2019-06-27T07:25:03.722Z,7.77
2019-06-27T07:27:31.362Z,7.70
2019-06-27T07:29:59.096Z,6.63
2019-06-27T07:32:26.730Z,7.50
2019-06-27T07:34:54.370Z,7.80
2019-06-27T07:37:22.607Z,7.00
2019-06-27T07:39:50.258Z,7.07
2019-06-27T07:42:18.032Z,7.30
2019-06-27T07:44:45.724Z,7.47
2019-06-27T07:47:13.461Z,7.00
2019-06-27T07:49:41.182Z,6.37
2019-06-27T07:52:08.842Z,6.23
2019-06-27T07:54:36.641Z,6.67
2019-06-27T07:57:04.410Z,6.47
2019-06-27T07:59:32.070Z,6.37
2019-06-27T08:01:59.705Z,6.83
2019-06-27T08:04:27.338Z,6.83
2019-06-27T08:06:55.008Z,7.50
2019-06-27T08:09:22.645Z,7.50
2019-06-27T08:11:50.387Z,7.58
2019-06-27T08:14:18.044Z,6.80
2019-06-27T08:16:45.825Z,7.17
2019-06-27T08:19:14.509Z,7.03
2019-06-27T08:21:42.215Z,7.23
2019-06-27T08:24:09.863Z,7.47
2019-06-27T08:26:37.591Z,6.97
2019-06-27T08:29:05.367Z,6.60
2019-06-27T08:31:33.055Z,6.23
2019-06-27T08:34:00.792Z,6.60
2019-06-27T08:36:28.526Z,6.80
2019-06-27T08:38:56.170Z,6.80
2019-06-27T08:41:23.905Z,6.43
2019-06-27T08:43:51.570Z,7.23
2019-06-27T08:46:19.214Z,7.17
2019-06-27T08:48:46.855Z,6.70
2019-06-27T08:51:14.523Z,7.08
2019-06-27T08:53:42.268Z,5.97
2019-06-27T08:56:09.991Z,5.93
2019-06-27T08:58:37.667Z,6.23
2019-06-27T09:01:05.653Z,6.23
2019-06-27T09:03:33.414Z,5.70
2019-06-27T09:06:01.085Z,6.73
2019-06-27T09:08:28.718Z,6.67
2019-06-27T09:10:56.365Z,6.13
2019-06-27T09:13:24.187Z,5.93
2019-06-27T09:15:51.889Z,6.30
2019-06-27T09:18:19.612Z,6.83
2019-06-27T09:20:47.278Z,6.63
2019-06-27T09:23:14.957Z,6.53
2019-06-27T09:25:42.801Z,6.30
2019-06-27T09:28:10.731Z,6.10
2019-06-27T09:30:38.366Z,5.80
2019-06-27T09:33:06.174Z,5.90
2019-06-27T09:35:33.841Z,6.33
2019-06-27T09:38:01.566Z,5.93
2019-06-27T09:40:29.205Z,5.90
2019-06-27T09:42:56.879Z,5.67
2019-06-27T09:45:24.840Z,5.97
2019-06-27T09:47:52.610Z,5.90
2019-06-27T09:50:21.629Z,5.53
2019-06-27T09:52:49.527Z,6.07
2019-06-27T09:55:17.678Z,5.80
2019-06-27T09:57:45.332Z,5.87
2019-06-27T10:00:13.541Z,5.55
2019-06-27T10:02:42.768Z,5.90
2019-06-27T10:05:11.189Z,5.55
2019-06-27T10:07:38.831Z,6.37
2019-06-27T10:10:06.683Z,5.87
2019-06-27T10:12:42.304Z,6.58
2019-06-27T10:15:06.510Z,5.55
2019-06-27T10:17:34.224Z,5.80
2019-06-27T10:20:02.156Z,6.87
2019-06-27T10:22:29.880Z,6.40
2019-06-27T10:24:57.505Z,6.17
2019-06-27T10:27:25.174Z,6.42
2019-06-27T10:29:52.886Z,5.80
2019-06-27T10:32:20.529Z,5.78
2019-06-27T10:34:48.209Z,5.47
2019-06-27T10:37:15.923Z,5.90
2019-06-27T10:39:43.555Z,6.50
2019-06-27T10:42:11.639Z,6.10
2019-06-27T10:44:39.286Z,5.92
2019-06-27T10:47:06.927Z,6.60
2019-06-27T10:49:34.657Z,5.78
2019-06-27T10:52:03.003Z,4.96
2019-06-27T10:54:30.642Z,6.55
2019-06-27T10:56:58.583Z,5.85
2019-06-27T10:59:26.217Z,5.58
2019-06-27T11:01:53.858Z,6.40
2019-06-27T11:04:21.534Z,6.22
2019-06-27T11:06:49.231Z,6.15
2019-06-27T11:09:16.875Z,6.40
2019-06-27T11:11:44.547Z,5.50
2019-06-27T11:14:12.321Z,6.55
2019-06-27T11:16:40.102Z,5.87
2019-06-27T11:19:07.775Z,5.47
2019-06-27T11:21:35.415Z,5.58
2019-06-27T11:24:03.194Z,5.95
2019-06-27T11:26:30.865Z,5.43
2019-06-27T11:28:58.503Z,6.40
2019-06-27T11:31:26.215Z,5.62
2019-06-27T11:33:53.874Z,6.28
2019-06-27T11:36:21.516Z,6.65
2019-06-27T11:38:49.253Z,5.90
2019-06-27T11:41:17.038Z,5.47
2019-06-27T11:43:44.739Z,6.75
2019-06-27T11:46:12.471Z,5.85
2019-06-27T11:48:40.298Z,4.73
2019-06-27T11:51:08.104Z,4.45
2019-06-27T11:53:35.883Z,4.70
2019-06-27T11:56:03.727Z,4.53
2019-06-27T11:58:31.435Z,4.95
2019-06-27T12:00:59.070Z,5.90
2019-06-27T12:03:26.759Z,4.65
2019-06-27T12:05:54.466Z,4.78
2019-06-27T12:08:22.106Z,4.90
2019-06-27T12:10:49.844Z,4.85
2019-06-27T12:13:17.559Z,5.55
2019-06-27T12:15:45.201Z,5.00
2019-06-27T12:18:12.930Z,4.62
2019-06-27T12:20:40.742Z,5.10
2019-06-27T12:23:08.382Z,5.28
2019-06-27T12:25:36.061Z,5.03
2019-06-27T12:28:03.696Z,5.30
2019-06-27T12:30:31.338Z,4.97
2019-06-27T12:32:59.064Z,4.78
2019-06-27T12:35:26.703Z,4.90
2019-06-27T12:37:54.346Z,5.75
2019-06-27T12:40:22.169Z,5.55
2019-06-27T12:42:50.939Z,5.28
2019-06-27T12:45:18.762Z,5.40
2019-06-27T12:47:46.600Z,4.45
2019-06-27T12:50:14.471Z,5.08
2019-06-27T12:52:42.112Z,4.75
2019-06-27T12:55:10.198Z,5.17
2019-06-27T12:57:37.924Z,4.97
2019-06-27T13:00:09.574Z,5.12
2019-06-27T13:02:37.433Z,4.30
2019-06-27T13:05:05.940Z,5.53
2019-06-27T13:07:34.175Z,5.62
2019-06-27T13:10:02.474Z,4.78
2019-06-27T13:12:30.173Z,5.03
2019-06-27T13:14:57.845Z,4.70
2019-06-27T13:17:25.756Z,4.80
2019-06-27T13:19:53.476Z,4.67
2019-06-27T13:22:21.190Z,4.40
2019-06-27T13:24:48.851Z,4.12
2019-06-27T13:27:16.567Z,4.87
2019-06-27T13:29:44.219Z,4.28
2019-06-27T13:32:11.899Z,4.92
2019-06-27T13:34:41.001Z,4.70
2019-06-27T13:37:08.948Z,4.45
2019-06-27T13:39:36.770Z,4.72
2019-06-27T13:42:04.428Z,4.67
2019-06-27T13:44:32.175Z,4.53
2019-06-27T13:46:59.907Z,4.30
2019-06-27T13:49:27.577Z,4.90
2019-06-27T13:51:55.487Z,4.90
2019-06-27T13:54:23.163Z,4.28
2019-06-27T13:56:50.815Z,5.00
2019-06-27T13:59:18.526Z,5.10
2019-06-27T14:01:46.250Z,4.78
2019-06-27T14:04:13.918Z,4.20
2019-06-27T14:06:41.571Z,4.67
2019-06-27T14:09:21.911Z,5.17
2019-06-27T14:11:38.667Z,4.80
2019-06-27T14:14:06.306Z,5.10
2019-06-27T14:16:34.003Z,5.05
2019-06-27T14:19:01.640Z,5.17
2019-06-27T14:21:29.304Z,4.60
2019-06-27T14:23:57.050Z,5.33
2019-06-27T14:26:24.906Z,4.90
2019-06-27T14:28:52.583Z,4.85
2019-06-27T14:31:20.245Z,3.98
2019-06-27T14:33:48.050Z,4.90
2019-06-27T14:36:15.802Z,5.45
2019-06-27T14:38:43.496Z,4.92
2019-06-27T14:41:11.224Z,4.30
2019-06-27T14:43:38.944Z,4.42
2019-06-27T14:46:06.603Z,4.95
2019-06-27T14:48:35.251Z,5.03
2019-06-27T14:51:02.948Z,5.35
2019-06-27T14:53:30.770Z,5.15
2019-06-27T14:55:58.482Z,5.20
2019-06-27T14:58:26.118Z,4.80
2019-06-27T15:00:53.793Z,5.28
2019-06-27T15:03:21.500Z,4.70
2019-06-27T15:05:49.138Z,5.05
2019-06-27T15:08:16.795Z,5.10
2019-06-27T15:10:44.503Z,5.72
2019-06-27T15:13:12.143Z,5.95
2019-06-27T15:15:39.883Z,5.67
2019-06-27T15:18:07.520Z,5.55
2019-06-27T15:20:35.238Z,5.78
2019-06-27T15:23:03.046Z,5.62
2019-06-27T15:25:30.762Z,5.40
2019-06-27T15:27:58.398Z,5.65
2019-06-27T15:30:26.050Z,5.65
2019-06-27T15:32:53.708Z,5.72
2019-06-27T15:35:21.461Z,5.45
2019-06-27T15:37:49.189Z,5.25
2019-06-27T15:40:17.026Z,5.60
2019-06-27T15:42:44.731Z,5.67
2019-06-27T15:45:12.628Z,6.05
2019-06-27T15:47:40.260Z,5.85
2019-06-27T15:50:09.858Z,5.95
2019-06-27T15:52:37.570Z,5.65
2019-06-27T15:55:11.869Z,5.15
2019-06-27T15:57:37.526Z,5.00
2019-06-27T16:00:06.836Z,5.72
2019-06-27T16:02:34.561Z,5.92
2019-06-27T16:05:02.330Z,5.87
2019-06-27T16:07:30.047Z,4.95
2019-06-27T16:09:57.693Z,6.00
2019-06-27T16:12:25.406Z,5.92
2019-06-27T16:14:53.271Z,5.23
2019-06-27T16:17:20.992Z,5.58
2019-06-27T16:19:48.801Z,5.62
2019-06-27T16:22:16.477Z,5.47
2019-06-27T16:24:44.115Z,6.33
2019-06-27T16:27:11.747Z,6.00
2019-06-27T16:29:39.698Z,5.65
2019-06-27T16:32:07.406Z,6.00
2019-06-27T16:34:35.129Z,6.47
2019-06-27T16:37:02.851Z,5.72
2019-06-27T16:39:30.622Z,6.37
2019-06-27T16:41:58.282Z,6.12
2019-06-27T16:44:25.951Z,6.08
2019-06-27T16:46:53.595Z,5.50
2019-06-27T16:49:21.238Z,6.28
2019-06-27T16:51:48.913Z,6.40
2019-06-27T16:54:18.087Z,5.60
2019-06-27T16:56:45.728Z,5.70
2019-06-27T16:59:13.391Z,5.90
2019-06-27T17:01:41.026Z,5.65
2019-06-27T17:04:08.673Z,5.92
2019-06-27T17:06:41.924Z,6.25
2019-06-27T17:09:06.471Z,6.80
2019-06-27T17:11:34.190Z,5.78
2019-06-27T17:14:01.986Z,6.85
2019-06-27T17:16:29.622Z,7.10
2019-06-27T17:18:57.257Z,6.15
2019-06-27T17:21:24.935Z,6.25
2019-06-27T17:23:52.574Z,6.62
2019-06-27T17:26:20.221Z,7.03
2019-06-27T17:28:47.955Z,7.37
2019-06-27T17:31:15.590Z,8.28
2019-06-27T17:33:43.230Z,7.50
2019-06-27T17:36:10.911Z,7.08
2019-06-27T17:38:38.567Z,7.72
2019-06-27T17:41:06.206Z,7.92
2019-06-27T17:43:33.882Z,8.58
2019-06-27T17:46:01.596Z,7.53
2019-06-27T17:48:29.226Z,8.00
2019-06-27T17:50:57.655Z,7.78
2019-06-27T17:53:25.363Z,8.13
2019-06-27T17:55:53.032Z,9.20
2019-06-27T17:58:21.078Z,7.85
2019-06-27T18:00:48.931Z,9.05
2019-06-27T18:03:16.570Z,8.10
2019-06-27T18:05:44.328Z,8.30
2019-06-27T18:08:11.958Z,8.70
2019-06-27T18:10:39.598Z,8.83
2019-06-27T18:13:07.257Z,9.85
2019-06-27T18:15:34.918Z,8.88
2019-06-27T18:18:02.634Z,8.80
2019-06-27T18:20:30.306Z,8.18
2019-06-27T18:22:57.951Z,8.20
2019-06-27T18:25:25.592Z,7.92
2019-06-27T18:27:53.341Z,8.20
2019-06-27T18:30:21.831Z,9.05
2019-06-27T18:32:49.747Z,8.38
2019-06-27T18:35:17.479Z,8.75
2019-06-27T18:37:45.127Z,9.35
2019-06-27T18:40:14.487Z,8.95
2019-06-27T18:42:42.223Z,9.43
2019-06-27T18:45:10.101Z,9.28
2019-06-27T18:47:38.511Z,9.33
2019-06-27T18:50:10.310Z,9.45
2019-06-27T18:52:37.956Z,9.68
2019-06-27T18:55:06.248Z,9.33
2019-06-27T18:57:33.984Z,9.50
2019-06-27T19:00:01.921Z,9.75
2019-06-27T19:02:29.659Z,9.73
2019-06-27T19:04:57.336Z,9.63
2019-06-27T19:07:24.967Z,9.45
2019-06-27T19:09:52.611Z,9.40
2019-06-27T19:12:20.372Z,9.58
2019-06-27T19:14:48.103Z,10.48
2019-06-27T19:17:16.046Z,9.53
2019-06-27T19:19:44.066Z,10.30
2019-06-27T19:22:11.808Z,9.73
2019-06-27T19:24:39.447Z,10.23
2019-06-27T19:27:07.222Z,11.03
2019-06-27T19:29:34.871Z,10.57
2019-06-27T19:32:02.523Z,10.10
2019-06-27T19:34:30.194Z,11.08
2019-06-27T19:36:57.914Z,11.12
2019-06-27T19:39:25.561Z,11.40
2019-06-27T19:41:56.832Z,11.33
2019-06-27T19:44:22.730Z,9.38
2019-06-27T19:46:50.378Z,10.13
2019-06-27T19:49:18.064Z,11.40
2019-06-27T19:51:45.707Z,10.90
2019-06-27T19:54:13.364Z,11.85
2019-06-27T19:56:41.030Z,12.20
2019-06-27T19:59:08.674Z,12.25
2019-06-27T20:01:36.320Z,12.45
2019-06-27T20:04:04.119Z,11.65
2019-06-27T20:06:31.831Z,11.80
2019-06-27T20:08:59.475Z,12.15
2019-06-27T20:11:27.226Z,12.70
2019-06-27T20:13:54.866Z,12.00
2019-06-27T20:16:22.537Z,12.20
2019-06-27T20:18:50.265Z,12.75
2019-06-27T20:21:17.912Z,12.70
2019-06-27T20:23:45.554Z,12.60
2019-06-27T20:26:13.226Z,12.23
2019-06-27T20:28:40.951Z,11.93
2019-06-27T20:31:08.594Z,11.93
2019-06-27T20:33:36.265Z,13.00
2019-06-27T20:36:03.987Z,12.07
2019-06-27T20:38:35.256Z,12.98
2019-06-27T20:41:01.110Z,13.40
2019-06-27T20:43:28.822Z,13.58
2019-06-27T20:45:56.463Z,13.43
2019-06-27T20:48:24.198Z,13.48
2019-06-27T20:50:51.915Z,13.85
2019-06-27T20:53:19.563Z,13.05
2019-06-27T20:55:47.314Z,13.80
2019-06-27T20:58:15.867Z,12.93
2019-06-27T21:00:43.506Z,13.18
2019-06-27T21:03:11.190Z,13.75
2019-06-27T21:05:39.466Z,12.93
2019-06-27T21:08:07.775Z,14.00
2019-06-27T21:10:35.527Z,13.72
2019-06-27T21:13:03.307Z,13.62
2019-06-27T21:15:31.024Z,12.87
2019-06-27T21:17:58.694Z,13.00
2019-06-27T21:20:26.338Z,13.47
2019-06-27T21:22:54.049Z,14.20
2019-06-27T21:25:21.814Z,13.33
2019-06-27T21:27:49.459Z,14.87
2019-06-27T21:30:18.510Z,15.55
2019-06-27T21:32:48.320Z,9.40
2019-06-27T21:35:15.530Z,15.68
2019-06-27T21:37:43.178Z,15.13
2019-06-27T21:40:11.096Z,14.47
2019-06-27T21:42:38.743Z,15.20
2019-06-27T21:45:07.030Z,14.33
2019-06-27T21:47:35.067Z,14.37
2019-06-27T21:50:06.402Z,15.45
2019-06-27T21:52:34.051Z,15.27
2019-06-27T21:55:01.787Z,14.67
2019-06-27T21:57:29.427Z,15.78
2019-06-27T21:59:57.062Z,13.88
2019-06-27T22:02:24.754Z,14.35
2019-06-27T22:04:52.395Z,14.33
2019-06-27T22:07:20.038Z,14.45
2019-06-27T22:09:47.743Z,14.77
2019-06-27T22:12:17.325Z,15.87
2019-06-27T22:14:44.747Z,15.00
2019-06-27T22:17:12.418Z,15.25
2019-06-27T22:19:40.055Z,15.03
2019-06-27T22:22:08.194Z,15.50
2019-06-27T22:24:35.866Z,15.10
2019-06-27T22:27:03.557Z,14.53
2019-06-27T22:29:31.227Z,14.70
2019-06-27T22:31:58.889Z,15.10
2019-06-27T22:34:26.605Z,14.80
2019-06-27T22:36:54.253Z,15.03
2019-06-27T22:39:21.921Z,14.53
2019-06-27T22:41:49.569Z,13.78
2019-06-27T22:44:17.290Z,14.27
2019-06-27T22:46:45.022Z,15.20
2019-06-27T22:49:14.106Z,15.33
2019-06-27T22:51:41.823Z,15.67
2019-06-27T22:54:09.505Z,16.20
2019-06-27T22:56:37.143Z,15.23
2019-06-27T22:59:04.785Z,16.30
2019-06-27T23:01:32.521Z,15.97
2019-06-27T23:04:00.168Z,15.83
2019-06-27T23:06:27.809Z,16.20
2019-06-27T23:08:55.610Z,16.40
2019-06-27T23:11:23.270Z,15.67
2019-06-27T23:13:50.916Z,16.00
2019-06-27T23:16:18.701Z,15.20
2019-06-27T23:18:46.406Z,16.47
2019-06-27T23:21:14.049Z,15.90
2019-06-27T23:23:41.730Z,16.67
2019-06-27T23:26:09.365Z,16.20
2019-06-27T23:28:37.012Z,16.53
2019-06-27T23:31:04.690Z,17.70
2019-06-27T23:33:32.333Z,16.37
2019-06-27T23:35:59.980Z,16.63
2019-06-27T23:38:27.719Z,16.20
2019-06-27T23:40:55.362Z,17.20
2019-06-27T23:43:23.004Z,17.13
2019-06-27T23:45:50.662Z,17.13
2019-06-27T23:48:18.311Z,18.07
2019-06-27T23:50:45.950Z,18.00
2019-06-27T23:53:13.615Z,18.23
2019-06-27T23:55:41.330Z,18.17
2019-06-27T23:58:08.964Z,17.97
